Time;durP1;ratioP1;P1;durP2;ratioP2;P2;SDS_P1;SDS_P2;PMS_P1;PMS_P2;Temp;Humidity;BMP_temperature;BMP_pressure;BME280_temperature;BME280_humidity;BME280_pressure;Samples;Min_cycle;Max_cycle;Signal;HPM_P1;HPM_P2
2023/04/13 00:00:35;;;;;;;5.28;1.52;;;;;;;13.53;44.16;98124.59;5093581;28;20028;-48
2023/04/13 00:03:02;;;;;;;3.72;1.40;;;;;;;13.36;44.69;98118.44;5093478;28;20024;-48
2023/04/13 00:05:28;;;;;;;8.15;1.95;;;;;;;13.08;44.93;98127.03;5093786;28;20123;-48
2023/04/13 00:07:54;;;;;;;4.78;1.73;;;;;;;12.81;44.95;98129.34;5093435;28;20044;-48
2023/04/13 00:10:21;;;;;;;3.42;1.90;;;;;;;12.58;45.29;98134.34;5093579;28;20059;-48
2023/04/13 00:12:47;;;;;;;8.20;1.30;;;;;;;12.48;45.50;98134.09;5109084;28;20044;-48
2023/04/13 00:15:20;;;;;;;4.32;0.95;;;;;;;12.47;45.75;98129.06;5092021;28;20081;-48
2023/04/13 00:17:46;;;;;;;10.95;5.22;;;;;;;12.36;45.87;98126.19;5091955;28;20057;-48
2023/04/13 00:20:13;;;;;;;10.63;4.15;;;;;;;12.16;46.48;98121.22;5108853;28;20024;-48
2023/04/13 00:22:43;;;;;;;8.18;4.35;;;;;;;11.96;47.24;98126.75;5093188;28;20448;-48
2023/04/13 00:25:10;;;;;;;17.00;2.65;;;;;;;11.74;47.40;98130.84;5074822;28;20058;-48
2023/04/13 00:27:39;;;;;;;6.35;1.42;;;;;;;11.53;47.68;98132.09;5108747;28;20024;-48
2023/04/13 00:30:14;;;;;;;5.43;1.48;;;;;;;11.35;47.12;98123.22;5108515;28;20062;-48
2023/04/13 00:32:41;;;;;;;8.82;2.42;;;;;;;11.03;47.45;98119.91;5093040;28;20482;-48
2023/04/13 00:35:09;;;;;;;7.88;1.73;;;;;;;10.80;48.74;98125.75;5091568;28;20032;-48
2023/04/13 00:37:36;;;;;;;9.23;2.28;;;;;;;10.51;48.88;98121.97;5093098;28;20504;-48
2023/04/13 00:40:04;;;;;;;12.15;2.20;;;;;;;10.39;50.06;98117.41;5092766;28;20028;-48
2023/04/13 00:42:30;;;;;;;4.28;1.25;;;;;;;10.45;49.98;98112.34;5093174;28;20739;-48
2023/04/13 00:44:56;;;;;;;4.10;1.40;;;;;;;10.36;50.30;98115.22;5108494;28;20059;-48
2023/04/13 00:47:31;;;;;;;106.85;9.57;;;;;;;10.21;51.77;98109.44;5092713;28;20069;-48
2023/04/13 00:50:04;;;;;;;6.00;1.95;;;;;;;10.21;51.79;98119.94;5091398;28;20067;-48
2023/04/13 00:52:33;;;;;;;5.90;1.10;;;;;;;10.19;51.54;98120.13;5092699;28;20100;-48
2023/04/13 00:55:01;;;;;;;7.97;2.40;;;;;;;10.14;51.02;98109.50;5092552;28;20060;-48
2023/04/13 00:57:28;;;;;;;7.22;1.95;;;;;;;10.04;51.58;98106.53;5092525;28;20077;-48
2023/04/13 00:59:54;;;;;;;5.70;1.30;;;;;;;9.90;51.66;98102.34;5108242;28;20111;-48
2023/04/13 01:02:25;;;;;;;5.22;1.52;;;;;;;9.74;51.63;98109.69;5092456;28;20520;-48
2023/04/13 01:04:54;;;;;;;6.70;1.50;;;;;;;9.88;51.63;98104.38;5092585;28;20027;-48
2023/04/13 01:07:37;;;;;;;7.05;2.20;;;;;;;9.82;51.75;98102.59;5091134;28;20055;-48
2023/04/13 01:10:15;;;;;;;5.10;1.83;;;;;;;9.62;53.18;98105.31;5092439;28;20520;-48
2023/04/13 01:13:04;;;;;;;7.40;1.50;;;;;;;9.50;53.51;98102.56;5108050;28;20115;-48
2023/04/13 01:15:36;;;;;;;4.32;1.00;;;;;;;9.31;53.36;98101.59;5092358;28;20036;-48
2023/04/13 01:18:06;;;;;;;13.25;2.42;;;;;;;9.12;54.76;98103.28;5091156;28;20028;-48
2023/04/13 01:20:34;;;;;;;7.68;1.40;;;;;;;9.16;54.71;98102.66;5091034;28;20032;-48
2023/04/13 01:23:06;;;;;;;10.95;1.42;;;;;;;9.04;54.96;98100.88;5092183;28;20039;-48
2023/04/13 01:25:55;;;;;;;4.30;0.93;;;;;;;8.78;55.38;98105.94;5108025;28;20028;-48
2023/04/13 01:28:22;;;;;;;4.93;1.00;;;;;;;8.60;55.62;98098.69;5091381;28;20032;-48
2023/04/13 01:30:52;;;;;;;5.03;1.17;;;;;;;8.52;55.33;98111.19;5107711;28;20052;-48
2023/04/13 01:33:19;;;;;;;6.05;0.90;;;;;;;8.42;54.66;98103.72;5092137;28;20032;-48
2023/04/13 01:35:45;;;;;;;3.88;1.13;;;;;;;8.35;54.92;98101.09;5107275;28;20028;-48
2023/04/13 01:38:11;;;;;;;4.18;1.10;;;;;;;8.26;55.42;98107.50;5092369;28;20036;-48
2023/04/13 01:40:40;;;;;;;5.60;1.23;;;;;;;8.17;56.42;98108.72;5092006;28;20505;-48
2023/04/13 01:43:07;;;;;;;6.13;1.20;;;;;;;8.14;55.99;98111.72;5107709;28;20098;-48
2023/04/13 01:45:59;;;;;;;4.10;1.30;;;;;;;8.13;56.03;98110.09;5107606;28;20386;-48
2023/04/13 01:48:33;;;;;;;4.57;1.33;;;;;;;8.15;56.53;98110.72;5089381;28;20505;-49
2023/04/13 01:51:10;;;;;;;5.95;1.55;;;;;;;8.17;56.29;98111.34;5073849;28;20525;-48
2023/04/13 01:53:50;;;;;;;6.82;1.70;;;;;;;8.23;56.24;98112.31;5108062;28;20034;-48
2023/04/13 01:56:18;;;;;;;3.60;1.08;;;;;;;8.34;55.82;98103.91;5092236;28;20107;-48
2023/04/13 01:58:48;;;;;;;7.70;1.48;;;;;;;8.46;55.61;98104.94;5107651;28;20028;-48
2023/04/13 02:01:14;;;;;;;4.40;1.10;;;;;;;8.73;55.43;98107.53;5091690;28;20054;-48
2023/04/13 02:03:42;;;;;;;4.05;1.10;;;;;;;8.90;54.92;98102.72;5091735;28;20020;-48
2023/04/13 02:06:09;;;;;;;6.32;1.17;;;;;;;8.89;54.96;98104.50;5073732;28;20512;-48
2023/04/13 02:08:39;;;;;;;4.93;1.17;;;;;;;8.83;54.91;98107.13;5091834;28;20505;-48
2023/04/13 02:11:06;;;;;;;10.82;1.77;;;;;;;8.72;55.46;98114.59;5091641;28;20039;-48
2023/04/13 02:13:33;;;;;;;6.93;1.50;;;;;;;8.46;55.68;98112.78;5091657;28;20039;-48
2023/04/13 02:15:59;;;;;;;5.75;1.05;;;;;;;8.11;56.26;98115.53;5090316;28;20041;-48
2023/04/13 02:18:25;;;;;;;5.22;1.40;;;;;;;7.89;57.84;98122.72;5090347;28;20039;-48
2023/04/13 02:21:00;;;;;;;6.93;1.45;;;;;;;7.79;59.44;98117.06;5091652;28;20024;-48
2023/04/13 02:23:27;;;;;;;5.70;1.42;;;;;;;7.69;60.00;98130.50;5090640;28;20030;-48
2023/04/13 02:25:52;;;;;;;9.35;2.47;;;;;;;7.58;60.00;98125.81;5091549;28;20044;-48
2023/04/13 02:28:19;;;;;;;7.53;1.70;;;;;;;7.60;60.37;98121.22;5091615;28;20501;-48
2023/04/13 02:30:45;;;;;;;5.72;1.48;;;;;;;7.61;60.67;98122.84;5091373;28;20058;-48
2023/04/13 02:33:11;;;;;;;11.18;1.75;;;;;;;7.57;60.82;98122.41;5091651;28;20028;-48
2023/04/13 02:35:37;;;;;;;6.18;1.50;;;;;;;7.37;61.60;98124.94;5107259;28;20474;-49
2023/04/13 02:38:09;;;;;;;8.45;1.83;;;;;;;7.22;62.48;98119.00;5091691;28;20098;-48
2023/04/13 02:40:35;;;;;;;7.45;1.40;;;;;;;7.22;62.68;98126.84;5107063;28;20406;-48
2023/04/13 02:43:01;;;;;;;5.43;1.60;;;;;;;7.13;62.36;98131.41;5091370;28;20036;-48
2023/04/13 02:45:27;;;;;;;5.50;1.52;;;;;;;7.00;63.40;98131.31;5107147;28;20497;-48
2023/04/13 02:47:53;;;;;;;7.07;1.83;;;;;;;7.01;64.00;98130.34;5091794;28;20031;-48
2023/04/13 02:50:18;;;;;;;4.63;1.92;;;;;;;7.01;63.96;98132.97;5095043;28;20027;-48
2023/04/13 02:52:45;;;;;;;8.60;2.10;;;;;;;7.07;64.33;98126.16;5095040;28;20060;-48
2023/04/13 02:55:11;;;;;;;8.80;2.20;;;;;;;7.07;64.06;98134.00;5110562;28;20123;-48
2023/04/13 02:57:37;;;;;;;5.15;1.30;;;;;;;6.93;63.63;98143.53;5094922;28;20055;-48
2023/04/13 03:00:09;;;;;;;6.22;1.98;;;;;;;7.08;64.71;98135.59;5094831;28;20051;-48
2023/04/13 03:02:36;;;;;;;4.28;1.15;;;;;;;7.21;64.31;98135.69;5110539;28;20028;-48
2023/04/13 03:05:04;;;;;;;5.45;1.60;;;;;;;7.15;64.23;98139.88;5110451;28;20084;-48
2023/04/13 03:07:31;;;;;;;2.60;1.23;;;;;;;7.03;64.45;98145.81;5094661;28;20024;-48
2023/04/13 03:10:00;;;;;;;7.13;1.73;;;;;;;6.98;64.46;98141.97;5093363;28;20023;-48
2023/04/13 03:12:25;;;;;;;8.30;1.50;;;;;;;7.00;64.72;98145.19;5094751;28;20040;-48
2023/04/13 03:14:51;;;;;;;6.93;1.25;;;;;;;7.19;63.71;98142.91;5094669;28;20078;-48
2023/04/13 03:17:17;;;;;;;13.10;1.95;;;;;;;7.36;63.70;98141.59;5110106;28;20489;-48
2023/04/13 03:19:46;;;;;;;9.77;1.80;;;;;;;7.61;63.17;98143.72;5094456;28;20055;-48
2023/04/13 03:22:12;;;;;;;8.40;1.40;;;;;;;7.84;62.34;98145.22;5110223;28;20397;-48
2023/04/13 03:24:38;;;;;;;3.80;1.45;;;;;;;7.95;61.77;98144.66;5094434;28;20020;-48
2023/04/13 03:27:04;;;;;;;4.13;1.38;;;;;;;8.11;60.22;98152.13;5094422;28;20020;-49
2023/04/13 03:29:30;;;;;;;6.82;1.40;;;;;;;8.04;60.72;98146.06;5094130;28;20073;-48
2023/04/13 03:31:56;;;;;;;9.02;2.05;;;;;;;8.18;60.06;98145.09;5110014;28;20060;-48
2023/04/13 03:34:22;;;;;;;5.97;1.27;;;;;;;8.07;60.48;98150.91;5093084;28;20055;-49
2023/04/13 03:36:48;;;;;;;6.00;1.70;;;;;;;7.98;60.54;98146.84;5109829;28;20024;-49
2023/04/13 03:39:14;;;;;;;9.88;2.42;;;;;;;8.04;60.83;98146.06;5094192;28;20099;-48
2023/04/13 03:41:40;;;;;;;8.43;1.40;;;;;;;8.08;60.78;98149.91;5109845;28;20402;-48
2023/04/13 03:44:07;;;;;;;10.32;1.52;;;;;;;8.04;60.55;98148.69;5109822;28;20028;-48
2023/04/13 03:46:36;;;;;;;10.10;1.65;;;;;;;8.02;60.62;98144.66;5075867;28;20068;-48
2023/04/13 03:49:05;;;;;;;6.38;1.80;;;;;;;8.00;61.10;98150.06;5093883;28;20020;-48
2023/04/13 03:51:31;;;;;;;10.73;1.95;;;;;;;7.86;61.03;98156.28;5093947;28;20451;-48
2023/04/13 03:53:57;;;;;;;31.55;3.95;;;;;;;7.90;60.95;98147.84;5093742;28;20520;-48
2023/04/13 03:56:23;;;;;;;136.98;9.65;;;;;;;7.96;61.82;98157.50;5094104;28;20072;-48
2023/04/13 03:58:49;;;;;;;75.65;6.60;;;;;;;8.17;64.70;98167.03;5093405;28;20031;-48
2023/04/13 04:01:15;;;;;;;22.58;3.30;;;;;;;8.04;65.18;98163.56;5093661;28;20024;-48
2023/04/13 04:03:41;;;;;;;8.77;1.70;;;;;;;7.64;66.87;98161.59;5093727;28;20095;-48
2023/04/13 04:06:07;;;;;;;11.20;2.13;;;;;;;7.19;70.22;98154.13;5109295;28;20181;-48
2023/04/13 04:08:33;;;;;;;6.00;1.95;;;;;;;6.93;74.01;98149.56;5093722;28;20024;-48
2023/04/13 04:10:59;;;;;;;6.40;1.98;;;;;;;6.78;75.09;98156.66;5093515;28;20129;-48
2023/04/13 04:13:24;;;;;;;11.73;3.65;;;;;;;6.67;77.34;98157.97;5093493;28;20117;-48
2023/04/13 04:15:50;;;;;;;9.32;2.70;;;;;;;6.81;79.63;98153.69;5093266;28;20054;-48
2023/04/13 04:18:16;;;;;;;9.25;1.83;;;;;;;6.87;79.57;98160.75;5093259;28;20486;-48
2023/04/13 04:20:42;;;;;;;10.95;2.38;;;;;;;6.77;80.65;98165.47;5108961;28;20036;-48
2023/04/13 04:23:08;;;;;;;8.75;2.33;;;;;;;6.58;78.68;98167.75;5093327;28;20024;-49
2023/04/13 04:25:36;;;;;;;12.68;2.65;;;;;;;6.48;78.35;98172.47;5093157;28;20032;-48
2023/04/13 04:28:03;;;;;;;13.52;2.50;;;;;;;6.54;77.08;98169.13;5108955;28;20107;-48
2023/04/13 04:30:32;;;;;;;6.47;2.05;;;;;;;6.50;77.87;98175.69;5108568;28;20131;-48
2023/04/13 04:33:01;;;;;;;7.80;2.08;;;;;;;6.30;78.18;98172.06;5093006;28;20393;-48
2023/04/13 04:35:33;;;;;;;6.18;2.10;;;;;;;6.37;79.53;98171.16;5092988;28;20027;-48
2023/04/13 04:38:03;;;;;;;5.75;2.50;;;;;;;6.59;80.00;98178.97;5108901;28;20035;-48
2023/04/13 04:40:29;;;;;;;7.50;2.13;;;;;;;6.67;78.17;98175.44;5108624;28;20051;-48
2023/04/13 04:42:56;;;;;;;7.28;2.20;;;;;;;6.60;78.83;98170.97;5108548;28;20024;-48
2023/04/13 04:45:22;;;;;;;7.47;2.08;;;;;;;6.58;80.79;98172.97;5091501;28;20470;-48
2023/04/13 04:47:49;;;;;;;8.30;1.80;;;;;;;6.58;79.38;98165.13;5092887;28;20020;-48
2023/04/13 04:50:16;;;;;;;6.93;2.15;;;;;;;6.54;79.95;98166.50;5092694;28;20032;-48
2023/04/13 04:52:42;;;;;;;10.68;1.70;;;;;;;6.54;80.59;98157.84;5108399;28;20031;-48
2023/04/13 04:55:08;;;;;;;6.03;1.83;;;;;;;6.51;80.61;98166.06;5092697;28;20057;-48
2023/04/13 04:57:35;;;;;;;4.72;1.90;;;;;;;6.50;80.86;98167.88;5091320;28;20028;-48
2023/04/13 05:00:14;;;;;;;8.63;1.65;;;;;;;6.52;81.42;98165.06;5108215;28;20055;-48
2023/04/13 05:02:40;;;;;;;5.15;1.58;;;;;;;6.60;81.28;98170.16;5092577;28;20028;-48
2023/04/13 05:05:07;;;;;;;10.80;1.88;;;;;;;6.76;81.92;98171.69;5108121;28;20361;-48
2023/04/13 05:07:33;;;;;;;8.10;2.10;;;;;;;6.83;81.97;98180.38;5108270;28;20039;-48
2023/04/13 05:09:59;;;;;;;10.65;3.15;;;;;;;6.92;81.51;98173.22;5092338;28;20036;-48
2023/04/13 05:12:25;;;;;;;8.10;2.20;;;;;;;6.99;81.26;98174.06;5090466;28;20027;-48
2023/04/13 05:14:51;;;;;;;4.88;1.70;;;;;;;7.14;80.35;98168.75;5091278;28;20055;-48
2023/04/13 05:17:17;;;;;;;6.13;1.95;;;;;;;7.43;81.01;98164.31;5092262;28;20028;-48
2023/04/13 05:19:44;;;;;;;8.00;2.08;;;;;;;7.96;81.22;98164.53;5092354;28;20043;-48
2023/04/13 05:22:10;;;;;;;6.82;2.40;;;;;;;8.52;77.91;98164.28;5091082;28;20103;-48
2023/04/13 05:24:36;;;;;;;6.47;2.13;;;;;;;8.69;74.21;98154.25;5092202;28;20081;-48
2023/04/13 05:27:02;;;;;;;7.80;2.38;;;;;;;8.66;73.26;98164.31;5092159;28;20030;-48
2023/04/13 05:29:28;;;;;;;9.52;2.38;;;;;;;8.76;72.78;98165.50;5092195;28;20421;-48
2023/04/13 05:31:57;;;;;;;13.20;2.53;;;;;;;8.85;73.25;98165.31;5092415;28;20047;-48
2023/04/13 05:34:23;;;;;;;11.93;2.67;;;;;;;9.37;70.42;98161.00;5092417;28;20032;-48
2023/04/13 05:36:49;;;;;;;11.13;2.35;;;;;;;9.89;68.76;98166.28;5107618;28;20413;-48
2023/04/13 05:39:14;;;;;;;10.85;2.35;;;;;;;10.30;66.33;98162.47;5092023;28;20020;-48
2023/04/13 05:41:40;;;;;;;10.60;2.50;;;;;;;10.52;65.26;98153.25;5091909;28;20497;-48
2023/04/13 05:44:06;;;;;;;6.25;2.50;;;;;;;10.78;65.70;98165.38;5107670;28;20024;-48
2023/04/13 05:46:32;;;;;;;64.00;6.70;;;;;;;10.55;66.03;98147.56;5091886;28;20028;-48
2023/04/13 05:48:59;;;;;;;55.08;6.15;;;;;;;10.10;67.08;98150.25;5091889;28;20512;-48
2023/04/13 05:51:29;;;;;;;23.25;3.80;;;;;;;9.60;68.32;98156.09;5091788;28;20028;-48
2023/04/13 05:53:56;;;;;;;12.90;3.75;;;;;;;9.14;70.39;98161.47;5091746;28;20031;-48
2023/04/13 05:56:22;;;;;;;17.75;2.83;;;;;;;9.12;74.32;98163.50;5091781;28;20028;-48
2023/04/13 05:58:48;;;;;;;7.82;2.22;;;;;;;9.26;73.53;98157.22;5091923;28;20409;-48
2023/04/13 06:01:15;;;;;;;13.55;3.10;;;;;;;9.40;73.49;98152.75;5090748;28;20043;-48
2023/04/13 06:03:42;;;;;;;12.05;3.72;;;;;;;9.35;71.29;98152.56;5091898;28;20024;-48
2023/04/13 06:06:09;;;;;;;9.90;3.53;;;;;;;9.15;70.00;98150.78;5091836;28;20028;-48
2023/04/13 06:08:34;;;;;;;12.05;3.30;;;;;;;9.16;70.76;98154.22;5091998;28;20374;-48
2023/04/13 06:11:01;;;;;;;11.82;2.97;;;;;;;9.38;68.30;98145.09;5107279;28;20038;-48
2023/04/13 06:13:27;;;;;;;12.18;3.47;;;;;;;9.59;67.21;98138.78;5073842;28;20035;-48
2023/04/13 06:15:53;;;;;;;15.60;3.58;;;;;;;9.53;66.19;98144.03;5090337;28;20028;-48
2023/04/13 06:18:18;;;;;;;9.93;2.88;;;;;;;9.49;67.00;98148.09;5107247;28;20111;-48
2023/04/13 06:20:45;;;;;;;15.95;3.58;;;;;;;9.54;67.06;98135.19;5091711;28;20505;-48
2023/04/13 06:23:11;;;;;;;11.52;2.70;;;;;;;9.53;66.72;98142.22;5094250;28;20024;-48
2023/04/13 06:25:37;;;;;;;6.65;2.20;;;;;;;9.58;66.60;98141.63;5094225;28;20031;-48
2023/04/13 06:28:03;;;;;;;7.22;2.80;;;;;;;9.86;67.83;98137.84;5095706;28;20094;-48
2023/04/13 06:30:29;;;;;;;9.48;2.53;;;;;;;10.18;68.51;98139.50;5095322;28;20051;-48
2023/04/13 06:32:55;;;;;;;7.75;2.63;;;;;;;10.36;68.20;98133.59;5095437;28;20039;-48
2023/04/13 06:35:22;;;;;;;9.13;2.55;;;;;;;10.55;66.21;98134.44;5110988;28;20028;-48
2023/04/13 06:37:47;;;;;;;11.05;2.90;;;;;;;10.58;65.41;98130.59;5095235;28;20032;-48
2023/04/13 06:40:14;;;;;;;12.00;3.45;;;;;;;11.00;64.23;98122.94;5110989;28;20085;-48
2023/04/13 06:42:42;;;;;;;10.70;2.90;;;;;;;11.11;62.93;98124.88;5110782;28;20111;-48
2023/04/13 06:45:09;;;;;;;4.28;2.20;;;;;;;11.26;62.95;98121.09;5110715;28;20035;-48
2023/04/13 06:47:36;;;;;;;9.98;2.53;;;;;;;12.30;61.04;98124.44;5093990;28;20063;-48
2023/04/13 06:50:05;;;;;;;88.65;8.63;;;;;;;13.69;61.81;98127.56;5094968;28;20573;-48
2023/04/13 06:52:34;;;;;;;38.70;4.72;;;;;;;15.55;60.76;98115.19;5094946;28;20401;-46
2023/04/13 06:55:00;;;;;;;18.23;3.85;;;;;;;17.34;54.72;98117.75;5094856;28;20055;-46
2023/04/13 06:57:26;;;;;;;56.25;6.65;;;;;;;17.45;50.62;98111.47;5094832;28;20028;-46
2023/04/13 06:59:52;;;;;;;39.70;4.05;;;;;;;18.00;51.24;98108.47;5094859;28;20032;-46
2023/04/13 07:02:18;;;;;;;31.67;4.43;;;;;;;19.26;45.75;98114.00;5110787;28;20028;-47
2023/04/13 07:04:43;;;;;;;37.38;4.80;;;;;;;20.41;45.18;98107.84;5094734;28;20035;-44
2023/04/13 07:07:09;;;;;;;30.85;3.50;;;;;;;20.72;42.11;98111.06;5110408;28;20561;-44
2023/04/13 07:09:35;;;;;;;12.90;2.58;;;;;;;20.37;43.22;98102.25;5110320;28;20519;-44
2023/04/13 07:12:06;;;;;;;14.10;3.40;;;;;;;19.84;40.88;98096.75;5110250;28;20063;-44
2023/04/13 07:14:39;;;;;;;11.88;3.03;;;;;;;18.10;44.45;98103.97;5094547;28;20049;-44
2023/04/13 07:17:05;;;;;;;13.60;3.58;;;;;;;16.96;46.12;98107.22;5094637;28;20028;-44
2023/04/13 07:19:32;;;;;;;23.70;4.15;;;;;;;16.02;47.30;98107.75;5110102;28;20036;-46
2023/04/13 07:21:58;;;;;;;15.05;3.33;;;;;;;15.02;46.49;98111.31;5110048;28;20047;-46
2023/04/13 07:24:26;;;;;;;13.98;3.65;;;;;;;13.97;47.87;98113.56;5094356;28;20028;-46
2023/04/13 07:26:52;;;;;;;29.88;4.35;;;;;;;13.77;50.90;98114.00;5094203;28;20039;-46
2023/04/13 07:29:18;;;;;;;17.98;3.45;;;;;;;13.90;50.18;98112.91;5109749;28;20071;-46
2023/04/13 07:31:44;;;;;;;42.20;5.32;;;;;;;13.98;48.88;98109.88;5109865;28;20074;-46
2023/04/13 07:34:11;;;;;;;60.25;5.43;;;;;;;13.87;47.36;98110.75;5092470;28;20514;-46
2023/04/13 07:36:36;;;;;;;80.15;6.25;;;;;;;13.51;48.82;98112.69;5076008;28;20494;-46
2023/04/13 07:39:02;;;;;;;70.47;5.43;;;;;;;13.35;48.38;98115.00;5094142;28;20027;-46
2023/04/13 07:41:28;;;;;;;32.97;3.55;;;;;;;13.42;47.96;98117.53;5109653;28;20032;-46
2023/04/13 07:43:54;;;;;;;19.42;3.60;;;;;;;13.47;48.22;98114.19;5109755;28;20024;-46
2023/04/13 07:46:25;;;;;;;24.60;3.53;;;;;;;13.54;48.26;98114.84;5109606;28;20417;-46
2023/04/13 07:48:52;;;;;;;60.92;6.88;;;;;;;13.55;50.00;98125.16;5094018;28;20028;-46
2023/04/13 07:51:19;;;;;;;107.05;7.97;;;;;;;13.74;48.78;98123.19;5092663;28;20024;-46
2023/04/13 07:53:45;;;;;;;67.55;4.85;;;;;;;14.01;48.59;98124.47;5093762;28;20036;-47
2023/04/13 07:56:11;;;;;;;90.57;6.47;;;;;;;14.01;47.93;98125.25;5093811;28;20028;-47
2023/04/13 07:58:37;;;;;;;27.23;3.60;;;;;;;14.01;47.90;98125.25;5093553;28;20086;-46
2023/04/13 08:01:03;;;;;;;8.55;2.47;;;;;;;14.08;47.71;98119.81;5093656;28;20032;-46
2023/04/13 08:03:33;;;;;;;24.23;3.13;;;;;;;14.15;47.19;98115.22;5109271;28;20032;-46
2023/04/13 08:05:59;;;;;;;24.30;3.15;;;;;;;14.18;46.86;98118.19;5093767;28;20169;-46
2023/04/13 08:08:25;;;;;;;15.82;3.45;;;;;;;14.47;46.98;98117.34;5093488;28;20457;-46
2023/04/13 08:10:51;;;;;;;24.08;3.42;;;;;;;14.77;46.04;98122.31;5093481;28;20020;-46
2023/04/13 08:13:17;;;;;;;21.23;3.08;;;;;;;15.23;44.25;98116.88;5109114;28;20117;-46
2023/04/13 08:15:44;;;;;;;17.63;3.65;;;;;;;15.64;43.18;98115.53;5109018;28;20039;-47
2023/04/13 08:18:10;;;;;;;16.90;2.83;;;;;;;16.10;41.19;98109.97;5093293;28;20024;-46
2023/04/13 08:20:35;;;;;;;18.90;3.83;;;;;;;16.44;39.96;98107.06;5108946;28;20035;-46
2023/04/13 08:23:02;;;;;;;12.85;2.85;;;;;;;16.99;39.13;98103.28;5108848;28;20031;-46
2023/04/13 08:25:28;;;;;;;16.83;2.78;;;;;;;17.44;38.39;98101.09;5075239;28;20456;-46
2023/04/13 08:27:55;;;;;;;12.82;2.05;;;;;;;17.80;37.27;98094.03;5093159;28;20027;-46
2023/04/13 08:30:21;;;;;;;10.77;2.10;;;;;;;18.94;35.39;98095.75;5092794;28;20056;-47
2023/04/13 08:32:47;;;;;;;26.45;3.28;;;;;;;20.29;33.06;98094.88;5108636;28;20028;-44
2023/04/13 08:35:13;;;;;;;14.25;2.55;;;;;;;22.19;29.36;98084.75;5092961;28;20520;-44
2023/04/13 08:37:39;;;;;;;9.48;2.10;;;;;;;24.80;25.83;98084.81;5092772;28;20020;-44
2023/04/13 08:40:06;;;;;;;16.55;2.88;;;;;;;26.75;23.39;98076.38;5092825;28;20065;-44
2023/04/13 08:42:33;;;;;;;16.63;2.47;;;;;;;27.53;22.51;98071.72;5092857;28;20374;-45
2023/04/13 08:45:00;;;;;;;22.30;2.83;;;;;;;26.59;22.60;98078.78;5108456;28;20510;-45
2023/04/13 08:47:27;;;;;;;44.33;3.97;;;;;;;25.20;22.96;98084.03;5107760;28;20031;-44
2023/04/13 08:50:00;;;;;;;26.42;3.10;;;;;;;24.16;24.88;98089.59;5092701;28;20107;-44
2023/04/13 08:52:27;;;;;;;52.45;4.68;;;;;;;23.24;24.93;98086.97;5092647;28;20066;-44
2023/04/13 08:54:54;;;;;;;33.60;3.83;;;;;;;22.53;25.39;98098.66;5092538;28;20390;-44
2023/04/13 08:57:21;;;;;;;45.22;4.28;;;;;;;22.97;25.28;98098.44;5091211;28;20493;-44
2023/04/13 08:59:51;;;;;;;22.77;3.10;;;;;;;24.03;24.50;98089.34;5091311;28;20035;-44
2023/04/13 09:02:25;;;;;;;29.80;4.03;;;;;;;24.64;23.26;98089.78;5092527;28;20544;-44
2023/04/13 09:04:56;;;;;;;37.40;3.90;;;;;;;24.87;23.20;98092.41;5108151;28;20035;-44
2023/04/13 09:07:27;;;;;;;29.30;3.83;;;;;;;26.06;22.34;98093.41;5108075;28;20028;-44
2023/04/13 09:09:59;;;;;;;25.30;3.72;;;;;;;27.17;21.04;98083.81;5092361;28;20046;-44
2023/04/13 09:12:30;;;;;;;34.75;3.60;;;;;;;27.67;20.65;98072.28;5091195;28;20035;-45
2023/04/13 09:14:56;;;;;;;35.20;3.97;;;;;;;28.74;19.51;98074.53;5092262;28;20024;-45
2023/04/13 09:17:28;;;;;;;25.90;3.47;;;;;;;29.51;18.48;98074.66;5107782;28;20032;-44
2023/04/13 09:20:09;;;;;;;32.83;4.35;;;;;;;29.83;17.99;98077.56;5092438;28;20024;-45
2023/04/13 09:22:35;;;;;;;15.27;3.63;;;;;;;30.56;17.47;98083.81;5092251;28;20039;-45
2023/04/13 09:25:03;;;;;;;16.33;3.90;;;;;;;31.02;17.18;98078.78;5092118;28;20449;-45
2023/04/13 09:27:30;;;;;;;46.20;4.78;;;;;;;31.56;16.38;98069.19;5090847;28;20554;-45
2023/04/13 09:29:56;;;;;;;29.85;4.40;;;;;;;31.69;16.57;98072.53;5091833;28;20052;-45
2023/04/13 09:32:24;;;;;;;26.35;4.57;;;;;;;31.68;16.41;98065.56;5092003;28;20137;-45
2023/04/13 09:35:04;;;;;;;25.75;4.13;;;;;;;31.52;16.47;98069.09;5091984;28;20433;-45
2023/04/13 09:37:34;;;;;;;24.08;4.60;;;;;;;30.86;17.21;98070.63;5090785;28;20032;-45
2023/04/13 09:40:26;;;;;;;15.80;3.65;;;;;;;31.42;17.16;98075.06;5090673;28;20040;-45
2023/04/13 09:43:00;;;;;;;22.40;3.50;;;;;;;30.82;16.24;98067.81;5105592;28;20081;-45
2023/04/13 09:45:40;;;;;;;34.67;3.88;;;;;;;29.48;17.24;98076.13;5092192;28;20038;-44
2023/04/13 09:48:22;;;;;;;25.02;3.40;;;;;;;27.43;19.14;98070.22;5107570;28;20481;-45
2023/04/13 09:51:00;;;;;;;18.08;3.22;;;;;;;25.43;20.60;98077.47;5091830;28;20027;-44
2023/04/13 09:53:37;;;;;;;16.63;3.47;;;;;;;24.18;21.51;98080.16;5107705;28;20035;-44
2023/04/13 09:56:03;;;;;;;11.90;3.40;;;;;;;24.05;22.37;98079.13;5091768;28;20023;-44
2023/04/13 09:58:30;;;;;;;10.63;2.33;;;;;;;24.85;21.37;98071.28;5110628;28;20032;-44
2023/04/13 10:00:57;;;;;;;18.52;3.20;;;;;;;25.99;21.25;98060.81;5094652;28;20081;-44
2023/04/13 10:03:22;;;;;;;25.23;3.35;;;;;;;27.82;18.68;98046.63;5094607;28;20035;-43
2023/04/13 10:05:48;;;;;;;27.33;4.25;;;;;;;28.26;17.83;98060.56;5095862;28;20028;-43
2023/04/13 10:08:16;;;;;;;24.73;2.92;;;;;;;28.95;17.67;98055.53;5111563;28;20035;-44
2023/04/13 10:10:42;;;;;;;25.15;3.58;;;;;;;28.31;18.03;98043.34;5095727;28;20020;-44
2023/04/13 10:13:16;;;;;;;14.82;3.15;;;;;;;26.62;19.11;98051.25;5077615;28;20028;-44
2023/04/13 10:16:10;;;;;;;9.32;2.25;;;;;;;26.63;19.43;98044.72;5111460;28;20085;-44
2023/04/13 10:19:20;;;;;;;9.30;2.45;;;;;;;27.87;18.26;98038.38;5111199;28;20105;-46
2023/04/13 10:21:49;;;;;;;10.50;2.47;;;;;;;29.40;16.92;98035.69;5083087;28;20043;-45
2023/04/13 10:24:16;;;;;;;15.85;2.53;;;;;;;29.21;16.42;98028.97;5095479;28;20404;-44
2023/04/13 10:26:43;;;;;;;9.23;2.45;;;;;;;29.79;16.19;98009.03;5111166;28;20518;-46
2023/04/13 10:29:12;;;;;;;11.43;2.15;;;;;;;30.56;15.67;98005.25;5110984;28;20543;-46
2023/04/13 10:31:40;;;;;;;15.13;3.22;;;;;;;31.03;15.12;98015.31;5095375;28;20035;-46
2023/04/13 10:34:07;;;;;;;14.27;3.05;;;;;;;31.37;15.37;98007.53;5111081;28;20039;-47
2023/04/13 10:36:40;;;;;;;13.10;3.13;;;;;;;31.15;15.60;98017.13;5110849;28;20486;-47
2023/04/13 10:39:07;;;;;;;20.40;3.05;;;;;;;31.15;15.46;98012.50;5111035;28;20449;-47
2023/04/13 10:41:33;;;;;;;20.00;3.38;;;;;;;29.85;14.85;98008.44;5094113;28;20417;-46
2023/04/13 10:44:05;;;;;;;33.42;4.05;;;;;;;28.12;16.51;98017.66;5095187;28;20031;-44
2023/04/13 10:46:35;;;;;;;17.95;2.65;;;;;;;28.12;16.20;98020.38;5095045;28;20032;-44
2023/04/13 10:49:03;;;;;;;15.57;2.95;;;;;;;28.32;16.90;98020.66;5095075;28;20067;-44
2023/04/13 10:51:42;;;;;;;15.90;2.92;;;;;;;28.48;16.71;98016.97;5110800;28;20493;-44
2023/04/13 10:54:09;;;;;;;17.63;2.70;;;;;;;28.65;16.29;98010.63;5111053;28;20024;-44
2023/04/13 10:56:36;;;;;;;35.45;3.25;;;;;;;29.45;16.06;98005.72;5093515;28;20034;-44
2023/04/13 10:59:03;;;;;;;20.30;2.50;;;;;;;30.47;15.34;98010.88;5094225;28;20390;-46
2023/04/13 11:01:30;;;;;;;14.68;3.20;;;;;;;30.41;14.97;98004.91;5110531;28;20020;-46
2023/04/13 11:04:01;;;;;;;16.75;3.30;;;;;;;29.51;15.77;97993.53;5094716;28;20028;-46
2023/04/13 11:06:27;;;;;;;9.32;2.75;;;;;;;29.07;15.96;97998.78;5110784;28;20031;-45
2023/04/13 11:09:01;;;;;;;14.30;2.47;;;;;;;29.27;16.02;97999.81;5109219;28;20028;-44
2023/04/13 11:11:27;;;;;;;;;;;;;;;29.94;15.81;98005.59;5093737;28;20024;-46
2023/04/13 11:13:53;;;;;;;10.20;2.50;;;;;;;30.00;15.23;98011.53;5093556;28;19914;-45
2023/04/13 11:16:19;;;;;;;57.22;6.18;;;;;;;30.20;15.12;98005.13;5094571;28;20107;-46
2023/04/13 11:18:45;;;;;;;179.10;14.75;;;;;;;30.75;15.11;97991.81;5110108;28;20031;-47
2023/04/13 11:21:17;;;;;;;38.60;4.47;;;;;;;31.09;14.80;97984.09;5094346;28;20035;-47
2023/04/13 11:23:52;;;;;;;11.85;3.22;;;;;;;30.70;14.77;97983.94;5094423;28;20064;-46
2023/04/13 11:26:29;;;;;;;13.88;2.67;;;;;;;29.57;14.52;97989.47;5094277;28;20568;-46
2023/04/13 11:28:56;;;;;;;10.93;2.22;;;;;;;27.89;15.59;97977.59;5094227;28;20087;-44
2023/04/13 11:31:35;;;;;;;15.13;2.90;;;;;;;26.86;17.25;97983.38;5094257;28;20073;-43
2023/04/13 11:34:01;;;;;;;15.95;2.22;;;;;;;26.21;17.85;97982.63;5094226;28;20481;-44
2023/04/13 11:36:29;;;;;;;17.75;2.95;;;;;;;25.75;18.67;97967.97;5094082;28;20027;-43